This is the latest recevied weather packets stored in our database for station/object PY1LEO-13. If no packets are shown the sender has not sent any weather packets the latest 10 day(s).
| Time | Temp. | Humidity | Pressure | Rain* | Wind** | Luminosity | Snow |
|---|---|---|---|---|---|---|---|
| 1777661762 | 27.22° C | 68% | 1018 hPa | - | - | - | - |
| 1777661462 | 27.78° C | 69% | 1018 hPa | - | - | - | - |
| 1777661162 | 27.22° C | 68% | 1018 hPa | - | - | - | - |
| 1777660862 | 27.22° C | 69% | 1018 hPa | - | - | - | - |
| 1777660562 | 27.78° C | 68% | 1018 hPa | - | - | - | - |
| 1777660262 | 27.78° C | 68% | 1018 hPa | - | - | - | - |
| 1777659962 | 27.78° C | 68% | 1017.9 hPa | - | - | - | - |
| 1777659662 | 27.78° C | 69% | 1017.8 hPa | - | - | - | - |
| 1777659362 | 27.78° C | 69% | 1017.9 hPa | - | - | - | - |
| 1777659062 | 27.78° C | 68% | 1017.9 hPa | - | - | - | - |
| 1777658762 | 27.78° C | 69% | 1017.9 hPa | - | - | - | - |
| 1777658462 | 28.89° C | 64% | 1017.9 hPa | - | - | - | - |
| 1777658162 | 28.89° C | 65% | 1017.9 hPa | - | - | - | - |
| 1777657864 | 29.44° C | 63% | 1017.9 hPa | - | - | - | - |
| 1777657562 | 30° C | 61% | 1017.9 hPa | - | - | - | - |
| 1777657262 | 29.44° C | 64% | 1017.9 hPa | - | - | - | - |
| 1777656962 | 29.44° C | 64% | 1018 hPa | - | - | - | - |
| 1777656662 | 29.44° C | 64% | 1018 hPa | - | - | - | - |
| 1777656362 | 29.44° C | 65% | 1018.1 hPa | - | - | - | - |
| 1777656062 | 28.33° C | 69% | 1018.2 hPa | - | - | - | - |
| 1777655762 | 28.33° C | 68% | 1018.2 hPa | - | - | - | - |
| 1777655462 | 28.33° C | 69% | 1018.3 hPa | - | - | - | - |
| 1777655162 | 28.33° C | 68% | 1018.3 hPa | - | - | - | - |
| 1777654862 | 28.89° C | 67% | 1018.3 hPa | - | - | - | - |
| 1777654562 | 28.89° C | 65% | 1018.3 hPa | - | - | - | - |
* Rain since midnight (hover to see other rain measurements)
** Current wind speed in m/s (hover to see current wind gust speed)